Latest Weather Observations for Cocos Island

IDW60801

Issued at 11:32 am WST Friday 12 February 2016 (issued every 30 minutes, with the page automatically refreshed every 10 minutes)

About weather observations | Map of weather stations | Latest weather observations for WA | Other Formats
Station Details ID: 200284 Name: COCOS ISLAND AIRPORT Lat: -12.19 Lon: 96.83 Height: 3.0 m
Data from the previous 72 hours. | See also: Recent months at Cocos Island
Date/Time
WST
Temp
°C
App
Temp
°C
Dew
Point
Rel
Hum
%
Delta-T
°C
Wind Press
QNH
hPa
Press
MSL
hPa
Rain
since 9 am
mm
Dir
 
Spd
km/h
Gust
km/h
Spd
kts
Gust
kts
12/11:30am 28.7 27.6 24.2 76 3.1 ESE 37 56 20 30 1005.0 - 0.0
12/11:00am 28.5 27.6 24.5 79 2.8 ESE 37 54 20 29 1005.1 1005.0 32.4
12/10:49am 28.1 28.2 24.8 82 2.3 ESE 33 52 18 28 1005.3 - 32.4
12/10:44am 27.8 27.7 25.1 85 1.9 ESE 35 52 19 28 1005.4 - 32.4
12/10:30am 28.7 28.1 24.4 77 3.0 ESE 35 46 19 25 1005.4 - 32.0
12/10:00am 28.5 28.4 24.6 79 2.7 ESE 33 50 18 27 1005.4 - 32.0
12/09:57am 28.5 28.6 24.5 79 2.8 ESE 32 50 17 27 1005.4 - 32.0
12/09:30am 28.7 28.4 24.2 76 3.1 ESE 33 50 18 27 1005.0 - 32.0
12/09:00am 28.2 28.5 24.8 82 2.4 ESE 32 44 17 24 1004.8 - 32.0
12/08:30am 27.8 27.3 24.5 82 2.3 SE 35 46 19 25 1004.6 - 32.0
12/08:00am 27.4 27.3 24.5 84 2.0 ESE 33 44 18 24 1004.3 1004.2 32.0
12/07:38am 26.3 24.8 24.7 91 1.1 SE 41 56 22 30 1004.3 - 32.0
12/07:30am 26.5 24.7 24.3 88 1.5 SE 41 54 22 29 1004.2 - 32.0
12/07:17am 26.5 26.2 24.8 90 1.2 ESE 35 54 19 29 1004.2 - 31.6
12/07:00am 26.3 25.9 24.7 91 1.1 ESE 35 56 19 30 1004.2 - 30.6
12/06:54am 25.9 23.9 24.5 92 1.0 ESE 43 61 23 33 1004.3 - 30.2
12/06:53am 26.0 24.0 24.9 94 0.8 ESE 44 61 24 33 1004.3 - 30.2
12/06:44am 26.6 24.2 23.2 81 2.3 SE 41 61 22 33 1004.1 - 29.4
12/06:42am 27.8 26.5 24.5 82 2.3 SE 39 61 21 33 1003.9 - 29.2
12/06:30am 27.7 27.4 24.8 84 2.0 SE 35 48 19 26 1003.7 - 29.2
12/06:06am 27.6 28.7 24.9 85 1.9 SSE 28 39 15 21 1003.8 - 29.0
12/06:00am 27.3 28.3 24.7 86 1.8 SSE 28 37 15 20 1003.8 - 29.0
12/05:30am 26.0 28.6 24.9 94 0.8 SE 20 28 11 15 1004.0 - 26.8
12/05:14am 26.4 26.0 24.7 90 1.2 ESE 35 50 19 27 1004.2 - 21.6
12/05:00am 27.7 28.5 25.0 85 1.9 ESE 30 39 16 21 1004.0 1003.9 20.4
12/04:30am 27.6 28.7 24.9 85 1.9 ESE 28 39 15 21 1004.3 - 20.2
12/04:00am 27.7 29.4 24.7 84 2.1 E 24 33 13 18 1004.2 - 19.8
12/03:30am 27.9 28.3 23.8 78 2.8 E 28 39 15 21 1004.4 - 19.8
12/03:00am 27.9 29.4 25.0 84 2.0 E 26 39 14 21 1004.6 - 19.8
12/02:30am 27.9 28.5 24.8 83 2.2 E 30 41 16 22 1004.9 - 19.8
12/02:00am 27.8 29.0 24.5 82 2.3 E 26 35 14 19 1005.5 1005.4 19.8
12/01:46am 27.7 29.2 24.4 82 2.3 ESE 24 32 13 17 1005.8 - 19.8
12/01:30am 27.6 28.7 24.4 83 2.2 E 26 37 14 20 1006.1 - 19.8
12/01:17am 27.5 28.6 24.9 86 1.8 E 28 39 15 21 1006.2 - 19.8
12/01:00am 27.0 28.2 25.1 89 1.3 E 28 43 15 23 1006.3 - 19.8
12/12:57am 27.4 29.0 25.7 90 1.2 E 28 41 15 22 1006.4 - 19.2
12/12:30am 27.1 29.8 25.1 89 1.4 ESE 20 26 11 14 1006.5 - 18.6
12/12:00am 25.8 25.7 25.1 96 0.5 ENE 35 50 19 27 1007.0 - 16.6
 
Date/Time
WST
Temp
°C
App
Temp
°C
Dew
Point
Rel
Hum
%
Delta-T
°C
Wind Press
QNH
hPa
Press
MSL
hPa
Rain
since 9 am
mm
Dir
 
Spd
km/h
Gust
km/h
Spd
kts
Gust
kts
11/11:51pm 27.0 28.9 26.2 95 0.6 E 28 50 15 27 1007.0 - 13.2
11/11:44pm 27.2 29.3 25.3 89 1.3 E 24 39 13 21 1006.7 - 10.2
11/11:30pm 27.4 29.5 25.3 88 1.5 E 24 33 13 18 1006.3 - 9.4
11/11:09pm 27.1 28.6 26.1 94 0.7 E 30 37 16 20 1006.1 - 9.4
11/11:06pm 27.0 28.3 25.9 94 0.8 ENE 30 37 16 20 1006.0 - 9.4
11/11:00pm 27.0 28.9 26.2 95 0.6 ENE 28 35 15 19 1005.9 1005.8 9.4
11/10:48pm 26.9 27.1 26.2 96 0.5 ENE 37 43 20 23 1005.5 - 9.4
11/10:30pm 27.3 31.0 26.3 94 0.7 E 19 26 10 14 1005.5 - 7.8
11/10:22pm 27.4 31.5 26.3 94 0.8 E 17 28 9 15 1005.5 - 7.8
11/10:14pm 27.1 31.6 26.4 96 0.5 E 15 24 8 13 1005.5 - 7.8
11/10:03pm 26.9 31.6 26.1 95 0.6 SE 13 17 7 9 1005.6 - 5.4
11/10:00pm 27.2 32.0 26.2 94 0.7 SE 13 17 7 9 1005.6 - 3.4
11/09:54pm 27.6 31.8 26.0 91 1.1 SE 15 22 8 12 1005.6 - 1.2
11/09:30pm 27.8 31.3 26.0 90 1.3 SE 19 30 10 16 1005.9 - 0.8
11/09:00pm 27.9 30.3 25.2 85 1.9 ESE 22 32 12 17 1005.8 - 0.8
11/08:30pm 28.0 30.3 25.7 87 1.6 SE 24 30 13 16 1005.3 - 0.8
11/08:00pm 27.8 30.1 25.1 85 1.9 E 22 30 12 16 1005.3 1005.2 0.8
11/07:30pm 28.4 31.4 25.3 83 2.2 ESE 19 24 10 13 1005.0 - 0.8
11/07:00pm 28.1 31.8 25.8 87 1.6 ESE 17 26 9 14 1004.9 - 0.8
11/06:52pm 28.0 31.6 26.2 90 1.3 ESE 19 26 10 14 1005.0 - 0.8
11/06:33pm 28.4 31.1 26.2 88 1.6 E 24 35 13 19 1004.9 - 0.4
11/06:30pm 28.7 31.0 26.2 86 1.8 E 26 35 14 19 1004.8 - 0.2
11/06:00pm 29.6 31.6 25.1 77 3.2 E 24 32 13 17 1004.5 - 0.0
11/05:30pm 29.5 31.8 25.1 77 3.1 ESE 22 32 12 17 1004.3 - 0.0
11/05:00pm 30.3 32.4 25.4 75 3.5 E 24 32 13 17 1004.0 1003.9 0.0
11/04:30pm 30.5 32.5 25.1 73 3.8 E 24 28 13 15 1004.1 - 0.0
11/04:00pm 30.3 32.9 24.9 73 3.8 E 20 28 11 15 1004.4 - 0.0
11/03:30pm 30.1 32.9 25.3 75 3.4 E 20 28 11 15 1004.9 - 0.0
11/03:00pm 29.6 31.8 25.5 78 2.9 E 24 30 13 16 1005.3 - 0.0
11/02:30pm 29.6 32.6 25.5 78 2.9 E 20 26 11 14 1005.4 - 0.0
11/02:00pm 30.2 33.3 25.7 77 3.2 E 20 28 11 15 1005.5 1005.4 0.0
11/01:30pm 29.8 32.5 25.6 78 3.0 E 22 28 12 15 1005.8 - 0.0
11/01:00pm 29.4 31.7 25.1 77 3.0 E 22 28 12 15 1006.1 - 0.0
11/12:30pm 30.2 33.4 25.5 76 3.3 ENE 19 24 10 13 1006.2 - 0.0
11/12:00pm 29.7 31.9 25.5 78 3.0 ENE 24 30 13 16 1006.2 - 0.0
11/11:30am 29.4 31.0 25.7 80 2.6 ENE 28 33 15 18 1006.3 - 0.0
11/11:00am 28.6 30.1 25.5 83 2.2 E 28 32 15 17 1006.5 1006.4 69.6
11/10:30am 28.6 29.4 25.0 81 2.5 E 30 35 16 19 1006.9 - 69.6
11/10:00am 28.2 29.8 25.1 83 2.2 E 26 33 14 18 1006.8 - 69.6
11/09:30am 27.8 29.0 25.1 85 1.9 E 28 35 15 19 1006.7 - 69.6
11/09:00am 27.2 29.7 24.8 87 1.7 E 20 30 11 16 1006.4 - 69.6
11/08:30am 27.1 29.8 25.0 88 1.5 E 20 26 11 14 1006.1 - 69.6
11/08:00am 26.7 29.7 24.7 89 1.4 E 17 24 9 13 1006.0 1005.9 69.6
11/07:48am 26.6 30.1 24.9 90 1.2 E 15 22 8 12 1006.1 - 69.6
11/07:33am 26.3 29.9 25.0 92 0.9 ESE 15 20 8 11 1005.9 - 69.6
11/07:30am 26.3 30.3 25.0 92 0.9 ESE 13 17 7 9 1005.9 - 69.6
11/07:00am 26.3 30.2 24.3 89 1.4 SSE 11 17 6 9 1005.6 - 69.6
11/06:30am 26.5 30.6 24.0 86 1.7 SE 9 11 5 6 1005.5 - 69.6
11/06:00am 26.3 30.1 24.1 88 1.5 SE 11 15 6 8 1005.5 - 69.6
11/05:30am 26.5 28.9 23.7 84 1.9 E 17 22 9 12 1005.5 - 69.2
11/05:00am 27.0 29.7 25.0 89 1.4 E 20 24 11 13 1005.6 1005.5 69.2
11/04:30am 26.8 30.9 24.5 87 1.6 E 11 17 6 9 1005.5 - 69.2
11/04:00am 26.1 32.2 24.5 91 1.1 CALM 0 0 0 0 1005.7 - 69.2
11/03:30am 25.8 32.0 24.6 93 0.8 CALM 0 0 0 0 1005.9 - 69.2
11/03:00am 26.5 32.7 24.6 89 1.3 CALM 0 0 0 0 1006.2 - 69.2
11/02:30am 25.8 31.9 24.4 92 1.0 CALM 0 0 0 0 1006.6 - 69.2
11/02:00am 26.8 32.8 24.3 86 1.7 CALM 0 0 0 0 1006.9 1006.8 69.2
11/01:30am 26.9 32.1 24.2 85 1.9 NE 4 9 2 5 1007.2 - 69.2
11/01:00am 26.9 30.7 24.0 84 2.0 ENE 11 15 6 8 1007.6 - 69.2
11/12:30am 27.1 30.3 24.4 85 1.9 NE 15 20 8 11 1008.0 - 69.2
11/12:00am 26.8 29.9 24.2 86 1.8 NNE 15 17 8 9 1008.0 - 69.2
 
Date/Time
WST
Temp
°C
App
Temp
°C
Dew
Point
Rel
Hum
%
Delta-T
°C
Wind Press
QNH
hPa
Press
MSL
hPa
Rain
since 9 am
mm
Dir
 
Spd
km/h
Gust
km/h
Spd
kts
Gust
kts
10/11:30pm 26.6 29.4 24.9 90 1.2 NNE 19 24 10 13 1008.0 - 69.2
10/11:27pm 26.5 28.9 24.6 89 1.3 NNE 20 24 11 13 1008.0 - 69.2
10/11:16pm 26.5 28.8 24.5 89 1.4 NNE 20 28 11 15 1007.9 - 69.2
10/11:07pm 26.6 29.2 24.9 90 1.2 ENE 20 26 11 14 1007.9 - 69.2
10/11:06pm 26.5 29.1 24.9 91 1.1 ENE 20 26 11 14 1007.9 - 69.2
10/11:00pm 26.5 28.7 24.9 91 1.1 ENE 22 30 12 16 1007.9 1007.8 69.2
10/10:30pm 26.1 28.9 25.0 94 0.8 ENE 19 26 10 14 1007.8 - 69.2
10/10:00pm 25.5 27.8 24.5 94 0.7 NE 20 26 11 14 1007.7 - 69.2
10/09:39pm 25.5 28.9 24.6 95 0.6 NNE 15 20 8 11 1007.7 - 69.0
10/09:30pm 25.2 29.6 24.5 96 0.5 N 9 19 5 10 1007.7 - 69.0
10/09:00pm 25.1 28.6 24.8 98 0.2 N 15 24 8 13 1007.9 - 67.2
10/08:30pm 25.1 26.1 24.8 98 0.2 N 28 37 15 20 1007.7 - 62.0
10/08:23pm 25.1 26.9 24.8 98 0.2 N 24 37 13 20 1007.5 - 58.8
10/08:00pm 25.3 25.2 25.2 99 0.1 NNE 35 43 19 23 1007.2 1007.1 54.8
10/07:53pm 25.6 26.9 25.3 98 0.2 NNE 28 43 15 23 1007.1 - 52.4
10/07:30pm 25.7 29.2 25.4 98 0.2 ENE 17 22 9 12 1006.7 - 33.0
10/07:23pm 25.7 29.2 25.4 98 0.2 E 17 22 9 12 1006.6 - 27.4
10/07:00pm 25.8 26.1 25.7 99 0.1 NNE 35 44 19 24 1006.3 - 12.6
10/06:46pm 26.4 26.3 25.1 92 0.9 NNE 35 43 19 23 1005.8 - 3.2
10/06:30pm 26.1 27.4 25.2 95 0.6 N 28 43 15 23 1005.5 - 2.8
10/06:28pm 26.0 26.8 25.0 94 0.7 N 30 43 16 23 1005.6 - 2.8
10/06:04pm 25.7 25.5 25.6 99 0.1 N 37 57 20 31 1005.1 - 1.8
10/06:00pm 27.5 27.8 25.8 90 1.2 NNE 35 46 19 25 1005.1 - 1.6
10/05:30pm 29.3 29.6 25.8 81 2.5 ENE 35 43 19 23 1005.1 - 1.6
10/05:00pm 29.4 28.8 25.0 77 3.1 ENE 37 50 20 27 1005.1 1005.0 1.6
10/04:30pm 29.4 28.5 25.1 77 3.0 ENE 39 46 21 25 1005.1 - 1.6
10/04:00pm 29.4 28.9 25.7 80 2.6 ENE 39 50 21 27 1005.1 - 1.6
10/03:43pm 28.6 28.6 26.4 88 1.6 NE 39 50 21 27 1005.3 - 1.4
10/03:34pm 28.2 29.0 25.7 86 1.8 NE 32 41 17 22 1005.5 - 1.4
10/03:30pm 29.5 27.7 25.8 80 2.6 ENE 46 54 25 29 1005.4 - 1.4
10/03:11pm 28.4 28.2 26.2 88 1.6 E 39 48 21 26 1005.7 - 1.4
10/03:00pm 27.9 26.7 26.1 90 1.3 E 44 50 24 27 1005.9 - 1.2
10/02:30pm 29.2 29.0 26.1 83 2.2 E 39 52 21 28 1006.0 - 0.8
10/02:00pm 29.5 28.3 25.8 80 2.6 ENE 43 54 23 29 1006.4 1006.3 0.8
10/01:41pm 28.0 27.6 25.9 88 1.5 NE 39 46 21 25 1006.7 - 0.4
10/01:30pm 29.5 29.4 25.8 80 2.6 E 37 44 20 24 1006.8 - 0.2
10/01:25pm 29.6 29.6 26.4 83 2.3 E 39 44 21 24 1006.8 - 0.2
10/01:00pm 30.2 30.6 26.0 78 3.0 ENE 35 43 19 23 1007.0 - 0.2
10/12:30pm 29.5 30.2 25.8 80 2.6 ENE 33 39 18 21 1007.1 - 0.2
10/12:00pm 29.1 28.6 25.1 79 2.8 E 37 46 20 25 1007.2 - 0.2
10/11:30am 29.1 30.0 25.3 80 2.7 E 30 43 16 23 1007.5 - 0.0
10/11:00am 29.0 29.4 25.3 80 2.6 E 33 48 18 26 1007.6 1007.5 2.2
10/10:30am 28.9 29.2 25.8 83 2.2 E 35 46 19 25 1007.7 - 2.2
10/10:00am 28.5 28.6 25.5 84 2.1 E 35 50 19 27 1007.7 - 2.2
10/09:30am 28.2 28.8 25.4 85 2.0 E 32 43 17 23 1007.6 - 2.2
10/09:00am 27.9 28.5 25.3 86 1.8 E 32 46 17 25 1007.5 - 2.2
10/08:47am 27.7 29.7 25.7 89 1.4 E 26 39 14 21 1007.5 - 2.2
10/08:39am 27.8 30.4 25.5 87 1.6 E 22 32 12 17 1007.4 - 1.4
10/08:30am 27.8 29.4 25.2 86 1.8 E 26 37 14 20 1007.5 - 1.4
10/08:00am 27.4 29.7 25.1 87 1.6 E 22 32 12 17 1007.1 1007.0 1.4
10/07:30am 27.4 28.9 24.4 84 2.1 E 24 33 13 18 1006.9 - 1.4
10/07:00am 27.0 29.2 24.9 88 1.5 E 22 32 12 17 1006.8 - 1.4
10/06:30am 27.1 29.2 24.1 84 2.1 E 20 28 11 15 1006.6 - 1.4
10/06:00am 27.2 29.9 25.1 88 1.5 E 20 30 11 16 1006.5 - 1.4
10/05:30am 27.1 29.5 25.2 89 1.3 E 22 30 12 16 1006.8 - 1.4
10/05:00am 27.0 28.3 25.3 90 1.2 ENE 28 35 15 19 1007.1 1007.0 1.4
10/04:30am 27.3 29.1 25.5 90 1.3 ENE 26 30 14 16 1006.7 - 1.4
10/04:00am 27.4 29.7 25.7 90 1.2 E 24 33 13 18 1007.0 - 1.4
10/03:30am 27.3 30.3 25.6 90 1.2 E 20 28 11 15 1007.1 - 1.4
10/03:00am 27.4 29.1 24.7 85 1.9 E 24 32 13 17 1007.6 - 1.4
10/02:30am 27.8 30.3 24.8 84 2.1 ENE 20 26 11 14 1007.9 - 1.4
10/02:00am 27.7 29.5 25.4 87 1.6 ENE 26 32 14 17 1008.3 1008.2 1.4
10/01:30am 27.0 29.1 25.3 90 1.2 ENE 24 32 13 17 1008.6 - 1.4
10/01:06am 27.8 29.8 25.1 85 1.9 ENE 24 28 13 15 1009.1 - 1.4
10/01:00am 27.7 29.8 25.3 87 1.7 E 24 28 13 15 1009.1 - 1.4
10/12:46am 27.0 28.6 25.1 89 1.3 ENE 26 33 14 18 1009.1 - 1.2
10/12:30am 28.2 30.7 25.9 87 1.6 ENE 24 33 13 18 1009.1 - 0.8
10/12:00am 28.7 32.5 25.9 85 2.0 ENE 17 22 9 12 1009.1 - 0.8
 
Date/Time
WST
Temp
°C
App
Temp
°C
Dew
Point
Rel
Hum
%
Delta-T
°C
Wind Press
QNH
hPa
Press
MSL
hPa
Rain
since 9 am
mm
Dir
 
Spd
km/h
Gust
km/h
Spd
kts
Gust
kts
09/11:30pm 28.8 32.7 26.0 85 2.0 ENE 17 24 9 13 1009.2 - 0.8
09/11:00pm 28.7 32.0 26.0 85 1.9 ENE 20 26 11 14 1008.9 1008.8 0.8
09/10:30pm 28.9 31.9 25.6 82 2.3 NE 20 24 11 13 1009.0 - 0.8
09/10:00pm 28.6 30.7 25.3 82 2.3 ENE 24 30 13 16 1008.9 - 0.8
09/09:30pm 28.6 30.8 25.5 83 2.2 ENE 24 32 13 17 1008.4 - 0.8
09/09:00pm 28.5 31.8 25.7 85 2.0 NNE 19 22 10 12 1008.2 - 0.8
09/08:30pm 28.8 32.0 25.8 84 2.1 NE 20 26 11 14 1007.9 - 0.8
09/08:00pm 28.3 32.2 26.0 87 1.6 NE 17 24 9 13 1007.8 1007.7 0.8
09/07:30pm 29.1 32.6 26.3 85 2.0 NNE 20 28 11 15 1007.4 - 0.8
09/07:00pm 29.4 31.9 25.9 81 2.5 NE 24 32 13 17 1007.0 - 0.8
09/06:30pm 29.8 31.7 25.6 78 3.0 NE 26 32 14 17 1007.0 - 0.8
09/06:00pm 29.4 31.7 24.5 75 3.4 NNE 20 24 11 13 1006.9 - 0.8
09/05:30pm 28.9 28.6 24.9 79 2.8 NE 35 41 19 22 1006.6 - 0.8
09/05:00pm 30.3 31.5 26.5 80 2.7 NE 33 39 18 21 1006.7 1006.6 0.8
09/04:30pm 30.6 32.5 26.7 80 2.8 NE 30 37 16 20 1007.0 - 0.8
09/04:00pm 30.3 32.5 26.7 81 2.6 NE 28 33 15 18 1007.1 - 0.8
09/03:30pm 29.7 33.2 26.9 85 2.0 NE 22 30 12 16 1007.5 - 0.8
09/03:00pm 30.2 33.0 26.9 82 2.4 NE 26 32 14 17 1007.8 - 0.2
09/02:30pm 30.5 32.0 26.2 78 3.1 NE 30 39 16 21 1008.0 - 0.2
09/02:00pm 30.4 31.4 26.8 81 2.6 NE 35 41 19 22 1008.1 1008.0 0.2
09/01:30pm 30.3 30.6 26.4 79 2.8 NE 37 44 20 24 1008.3 - 0.2

Other Formats:

Comma delimited format used in spreadsheet applications
http://www.bom.gov.au/fwo/IDW60801/IDW60801.96996.axf

JavaScript Object Notation format (JSON) in row-major order
http://www.bom.gov.au/fwo/IDW60801/IDW60801.96996.json